sensor_id;sensor_type;location;lat;lon;timestamp;P1;durP1;ratioP1;P2;durP2;ratioP2
21886;SDS011;11108;49.988;8.182;2023-02-01T00:02:03;0.87;;;0.87;;
21886;SDS011;11108;49.988;8.182;2023-02-01T00:04:28;1.00;;;0.70;;
21886;SDS011;11108;49.988;8.182;2023-02-01T00:06:53;1.13;;;0.57;;
21886;SDS011;11108;49.988;8.182;2023-02-01T00:09:18;1.13;;;0.80;;
21886;SDS011;11108;49.988;8.182;2023-02-01T00:11:44;1.00;;;1.00;;
21886;SDS011;11108;49.988;8.182;2023-02-01T00:14:09;0.87;;;0.60;;
21886;SDS011;11108;49.988;8.182;2023-02-01T00:16:34;1.90;;;1.00;;
21886;SDS011;11108;49.988;8.182;2023-02-01T00:19:01;1.17;;;0.60;;
21886;SDS011;11108;49.988;8.182;2023-02-01T00:21:26;0.60;;;0.60;;
21886;SDS011;11108;49.988;8.182;2023-02-01T00:23:52;1.50;;;0.90;;
21886;SDS011;11108;49.988;8.182;2023-02-01T00:26:36;1.30;;;0.77;;
21886;SDS011;11108;49.988;8.182;2023-02-01T00:29:03;0.67;;;0.67;;
21886;SDS011;11108;49.988;8.182;2023-02-01T00:31:28;0.97;;;0.70;;
21886;SDS011;11108;49.988;8.182;2023-02-01T00:33:53;1.33;;;0.87;;
21886;SDS011;11108;49.988;8.182;2023-02-01T00:36:19;1.33;;;0.70;;
21886;SDS011;11108;49.988;8.182;2023-02-01T00:38:44;0.70;;;0.70;;
21886;SDS011;11108;49.988;8.182;2023-02-01T00:41:16;0.87;;;0.77;;
21886;SDS011;11108;49.988;8.182;2023-02-01T00:43:42;0.60;;;0.60;;
21886;SDS011;11108;49.988;8.182;2023-02-01T00:46:08;1.87;;;0.90;;
21886;SDS011;11108;49.988;8.182;2023-02-01T00:48:33;0.97;;;0.67;;
21886;SDS011;11108;49.988;8.182;2023-02-01T00:50:59;0.97;;;0.97;;
21886;SDS011;11108;49.988;8.182;2023-02-01T00:53:24;1.23;;;0.97;;
21886;SDS011;11108;49.988;8.182;2023-02-01T00:55:49;1.60;;;0.80;;
21886;SDS011;11108;49.988;8.182;2023-02-01T00:58:14;0.80;;;0.80;;
21886;SDS011;11108;49.988;8.182;2023-02-01T01:00:40;0.70;;;0.70;;
21886;SDS011;11108;49.988;8.182;2023-02-01T01:03:05;0.80;;;0.80;;
21886;SDS011;11108;49.988;8.182;2023-02-01T01:05:46;0.70;;;0.70;;
21886;SDS011;11108;49.988;8.182;2023-02-01T01:08:11;0.60;;;0.60;;
21886;SDS011;11108;49.988;8.182;2023-02-01T01:10:37;0.73;;;0.73;;
21886;SDS011;11108;49.988;8.182;2023-02-01T01:13:02;0.60;;;0.60;;
21886;SDS011;11108;49.988;8.182;2023-02-01T01:15:27;0.77;;;0.70;;
21886;SDS011;11108;49.988;8.182;2023-02-01T01:17:52;0.83;;;0.83;;
21886;SDS011;11108;49.988;8.182;2023-02-01T01:20:17;1.60;;;0.70;;
21886;SDS011;11108;49.988;8.182;2023-02-01T01:22:46;0.60;;;0.60;;
21886;SDS011;11108;49.988;8.182;2023-02-01T01:25:11;0.60;;;0.60;;
21886;SDS011;11108;49.988;8.182;2023-02-01T01:27:36;0.77;;;0.77;;
21886;SDS011;11108;49.988;8.182;2023-02-01T01:30:02;0.70;;;0.70;;
21886;SDS011;11108;49.988;8.182;2023-02-01T01:32:27;1.03;;;0.70;;
21886;SDS011;11108;49.988;8.182;2023-02-01T01:34:52;0.70;;;0.70;;
21886;SDS011;11108;49.988;8.182;2023-02-01T01:37:17;0.70;;;0.70;;
21886;SDS011;11108;49.988;8.182;2023-02-01T01:39:42;0.70;;;0.70;;
21886;SDS011;11108;49.988;8.182;2023-02-01T01:42:10;2.33;;;0.87;;
21886;SDS011;11108;49.988;8.182;2023-02-01T01:47:20;0.83;;;0.80;;
21886;SDS011;11108;49.988;8.182;2023-02-01T01:49:45;1.03;;;0.83;;
21886;SDS011;11108;49.988;8.182;2023-02-01T01:52:11;0.70;;;0.70;;
21886;SDS011;11108;49.988;8.182;2023-02-01T01:54:47;0.80;;;0.80;;
21886;SDS011;11108;49.988;8.182;2023-02-01T01:57:17;1.13;;;0.70;;
21886;SDS011;11108;49.988;8.182;2023-02-01T01:59:47;0.60;;;0.60;;
21886;SDS011;11108;49.988;8.182;2023-02-01T02:02:13;0.70;;;0.70;;
21886;SDS011;11108;49.988;8.182;2023-02-01T02:04:39;0.63;;;0.63;;
21886;SDS011;11108;49.988;8.182;2023-02-01T02:07:05;0.87;;;0.70;;
21886;SDS011;11108;49.988;8.182;2023-02-01T02:09:32;0.83;;;0.83;;
21886;SDS011;11108;49.988;8.182;2023-02-01T02:11:58;1.17;;;0.90;;
21886;SDS011;11108;49.988;8.182;2023-02-01T02:14:23;0.90;;;0.60;;
21886;SDS011;11108;49.988;8.182;2023-02-01T02:17:01;0.97;;;0.97;;
21886;SDS011;11108;49.988;8.182;2023-02-01T02:24:38;0.60;;;0.60;;
21886;SDS011;11108;49.988;8.182;2023-02-01T02:27:18;0.60;;;0.60;;
21886;SDS011;11108;49.988;8.182;2023-02-01T02:35:20;1.03;;;1.03;;
21886;SDS011;11108;49.988;8.182;2023-02-01T02:40:16;0.50;;;0.40;;
21886;SDS011;11108;49.988;8.182;2023-02-01T02:46:06;1.10;;;1.03;;
21886;SDS011;11108;49.988;8.182;2023-02-01T02:51:25;1.07;;;0.80;;
21886;SDS011;11108;49.988;8.182;2023-02-01T02:54:13;0.90;;;0.80;;
21886;SDS011;11108;49.988;8.182;2023-02-01T02:56:58;0.80;;;0.80;;
21886;SDS011;11108;49.988;8.182;2023-02-01T02:59:44;0.60;;;0.60;;
21886;SDS011;11108;49.988;8.182;2023-02-01T03:02:28;0.93;;;0.50;;
21886;SDS011;11108;49.988;8.182;2023-02-01T03:05:12;0.80;;;0.80;;
21886;SDS011;11108;49.988;8.182;2023-02-01T03:12:53;0.60;;;0.60;;
21886;SDS011;11108;49.988;8.182;2023-02-01T03:15:24;1.03;;;0.80;;
21886;SDS011;11108;49.988;8.182;2023-02-01T03:17:51;0.80;;;0.80;;
21886;SDS011;11108;49.988;8.182;2023-02-01T03:20:18;1.23;;;0.80;;
21886;SDS011;11108;49.988;8.182;2023-02-01T03:22:47;0.70;;;0.70;;
21886;SDS011;11108;49.988;8.182;2023-02-01T03:25:15;0.60;;;0.60;;
21886;SDS011;11108;49.988;8.182;2023-02-01T03:27:59;0.87;;;0.87;;
21886;SDS011;11108;49.988;8.182;2023-02-01T03:32:51;0.80;;;0.80;;
21886;SDS011;11108;49.988;8.182;2023-02-01T03:35:29;0.60;;;0.60;;
21886;SDS011;11108;49.988;8.182;2023-02-01T03:37:56;0.67;;;0.67;;
21886;SDS011;11108;49.988;8.182;2023-02-01T03:40:23;0.90;;;0.90;;
21886;SDS011;11108;49.988;8.182;2023-02-01T03:42:50;1.00;;;0.83;;
21886;SDS011;11108;49.988;8.182;2023-02-01T03:45:52;0.73;;;0.70;;
21886;SDS011;11108;49.988;8.182;2023-02-01T03:48:09;0.70;;;0.70;;
21886;SDS011;11108;49.988;8.182;2023-02-01T03:50:37;0.67;;;0.67;;
21886;SDS011;11108;49.988;8.182;2023-02-01T03:53:05;0.93;;;0.93;;
21886;SDS011;11108;49.988;8.182;2023-02-01T03:55:31;0.70;;;0.70;;
21886;SDS011;11108;49.988;8.182;2023-02-01T03:57:58;0.80;;;0.80;;
21886;SDS011;11108;49.988;8.182;2023-02-01T04:00:26;1.20;;;0.80;;
21886;SDS011;11108;49.988;8.182;2023-02-01T04:02:52;0.60;;;0.60;;
21886;SDS011;11108;49.988;8.182;2023-02-01T04:05:17;0.60;;;0.60;;
21886;SDS011;11108;49.988;8.182;2023-02-01T04:07:42;0.70;;;0.70;;
21886;SDS011;11108;49.988;8.182;2023-02-01T04:10:08;0.83;;;0.77;;
21886;SDS011;11108;49.988;8.182;2023-02-01T04:12:33;0.80;;;0.80;;
21886;SDS011;11108;49.988;8.182;2023-02-01T04:14:59;0.47;;;0.47;;
21886;SDS011;11108;49.988;8.182;2023-02-01T04:17:24;0.77;;;0.77;;
21886;SDS011;11108;49.988;8.182;2023-02-01T04:19:49;0.50;;;0.50;;
21886;SDS011;11108;49.988;8.182;2023-02-01T04:22:14;0.70;;;0.70;;
21886;SDS011;11108;49.988;8.182;2023-02-01T04:24:39;0.70;;;0.70;;
21886;SDS011;11108;49.988;8.182;2023-02-01T04:27:05;0.77;;;0.77;;
21886;SDS011;11108;49.988;8.182;2023-02-01T04:29:30;2.10;;;0.60;;
21886;SDS011;11108;49.988;8.182;2023-02-01T04:31:55;1.30;;;0.70;;
21886;SDS011;11108;49.988;8.182;2023-02-01T04:34:20;0.90;;;0.90;;
21886;SDS011;11108;49.988;8.182;2023-02-01T04:36:47;0.50;;;0.50;;
21886;SDS011;11108;49.988;8.182;2023-02-01T04:39:12;1.13;;;0.50;;
21886;SDS011;11108;49.988;8.182;2023-02-01T04:41:37;0.60;;;0.60;;
21886;SDS011;11108;49.988;8.182;2023-02-01T04:44:03;0.70;;;0.70;;
21886;SDS011;11108;49.988;8.182;2023-02-01T04:46:28;0.83;;;0.80;;
21886;SDS011;11108;49.988;8.182;2023-02-01T04:48:53;0.80;;;0.80;;
21886;SDS011;11108;49.988;8.182;2023-02-01T04:51:18;0.80;;;0.80;;
21886;SDS011;11108;49.988;8.182;2023-02-01T04:53:44;0.80;;;0.80;;
21886;SDS011;11108;49.988;8.182;2023-02-01T04:56:09;1.30;;;0.70;;
21886;SDS011;11108;49.988;8.182;2023-02-01T04:58:35;0.70;;;0.70;;
21886;SDS011;11108;49.988;8.182;2023-02-01T05:01:02;0.60;;;0.60;;
21886;SDS011;11108;49.988;8.182;2023-02-01T05:03:29;0.80;;;0.80;;
21886;SDS011;11108;49.988;8.182;2023-02-01T05:05:54;0.70;;;0.70;;
21886;SDS011;11108;49.988;8.182;2023-02-01T05:08:19;0.70;;;0.70;;
21886;SDS011;11108;49.988;8.182;2023-02-01T05:10:47;0.93;;;0.70;;
21886;SDS011;11108;49.988;8.182;2023-02-01T05:13:12;0.70;;;0.70;;
21886;SDS011;11108;49.988;8.182;2023-02-01T05:16:16;0.73;;;0.73;;
21886;SDS011;11108;49.988;8.182;2023-02-01T05:18:41;0.93;;;0.90;;
21886;SDS011;11108;49.988;8.182;2023-02-01T05:21:07;0.70;;;0.70;;
21886;SDS011;11108;49.988;8.182;2023-02-01T05:23:32;1.03;;;0.63;;
21886;SDS011;11108;49.988;8.182;2023-02-01T05:26:00;0.63;;;0.63;;
21886;SDS011;11108;49.988;8.182;2023-02-01T05:28:26;0.60;;;0.60;;
21886;SDS011;11108;49.988;8.182;2023-02-01T05:30:51;0.60;;;0.60;;
21886;SDS011;11108;49.988;8.182;2023-02-01T05:33:16;0.87;;;0.60;;
21886;SDS011;11108;49.988;8.182;2023-02-01T05:35:41;1.10;;;0.83;;
21886;SDS011;11108;49.988;8.182;2023-02-01T05:38:07;1.37;;;0.93;;
21886;SDS011;11108;49.988;8.182;2023-02-01T05:40:32;0.60;;;0.60;;
21886;SDS011;11108;49.988;8.182;2023-02-01T05:42:57;0.83;;;0.80;;
21886;SDS011;11108;49.988;8.182;2023-02-01T05:45:22;1.23;;;0.70;;
21886;SDS011;11108;49.988;8.182;2023-02-01T05:47:48;0.60;;;0.60;;
21886;SDS011;11108;49.988;8.182;2023-02-01T05:50:13;0.70;;;0.70;;
21886;SDS011;11108;49.988;8.182;2023-02-01T05:52:38;0.83;;;0.80;;
21886;SDS011;11108;49.988;8.182;2023-02-01T05:55:03;0.70;;;0.70;;
21886;SDS011;11108;49.988;8.182;2023-02-01T05:57:29;1.30;;;0.90;;
21886;SDS011;11108;49.988;8.182;2023-02-01T05:59:55;0.67;;;0.60;;
21886;SDS011;11108;49.988;8.182;2023-02-01T06:02:20;0.70;;;0.70;;
21886;SDS011;11108;49.988;8.182;2023-02-01T06:04:46;0.67;;;0.60;;
21886;SDS011;11108;49.988;8.182;2023-02-01T06:07:11;0.60;;;0.53;;
21886;SDS011;11108;49.988;8.182;2023-02-01T06:09:37;0.77;;;0.70;;
21886;SDS011;11108;49.988;8.182;2023-02-01T06:12:02;0.57;;;0.50;;
21886;SDS011;11108;49.988;8.182;2023-02-01T06:14:28;0.53;;;0.53;;
21886;SDS011;11108;49.988;8.182;2023-02-01T06:16:53;0.50;;;0.50;;
21886;SDS011;11108;49.988;8.182;2023-02-01T06:19:19;0.83;;;0.70;;
21886;SDS011;11108;49.988;8.182;2023-02-01T06:21:44;2.30;;;0.70;;
21886;SDS011;11108;49.988;8.182;2023-02-01T06:24:10;0.70;;;0.70;;
21886;SDS011;11108;49.988;8.182;2023-02-01T06:26:35;0.60;;;0.60;;
21886;SDS011;11108;49.988;8.182;2023-02-01T06:29:01;0.60;;;0.60;;
21886;SDS011;11108;49.988;8.182;2023-02-01T06:31:26;0.57;;;0.57;;
21886;SDS011;11108;49.988;8.182;2023-02-01T06:33:51;0.50;;;0.50;;
21886;SDS011;11108;49.988;8.182;2023-02-01T06:36:16;1.37;;;1.27;;
21886;SDS011;11108;49.988;8.182;2023-02-01T06:38:43;0.93;;;0.80;;
21886;SDS011;11108;49.988;8.182;2023-02-01T06:41:08;0.60;;;0.60;;
21886;SDS011;11108;49.988;8.182;2023-02-01T06:43:34;1.03;;;0.63;;
21886;SDS011;11108;49.988;8.182;2023-02-01T06:46:00;0.90;;;0.87;;
21886;SDS011;11108;49.988;8.182;2023-02-01T06:48:26;1.37;;;0.60;;
21886;SDS011;11108;49.988;8.182;2023-02-01T06:50:51;1.53;;;0.60;;
21886;SDS011;11108;49.988;8.182;2023-02-01T06:53:16;1.07;;;0.60;;
21886;SDS011;11108;49.988;8.182;2023-02-01T06:55:41;1.53;;;0.70;;
21886;SDS011;11108;49.988;8.182;2023-02-01T06:58:06;0.73;;;0.50;;
21886;SDS011;11108;49.988;8.182;2023-02-01T07:00:32;1.93;;;1.13;;
21886;SDS011;11108;49.988;8.182;2023-02-01T07:02:57;0.77;;;0.60;;
21886;SDS011;11108;49.988;8.182;2023-02-01T07:05:22;1.27;;;0.67;;
21886;SDS011;11108;49.988;8.182;2023-02-01T07:07:48;1.13;;;0.73;;
21886;SDS011;11108;49.988;8.182;2023-02-01T07:10:13;0.73;;;0.60;;
21886;SDS011;11108;49.988;8.182;2023-02-01T07:12:38;1.90;;;0.90;;
21886;SDS011;11108;49.988;8.182;2023-02-01T07:15:04;0.60;;;0.50;;
21886;SDS011;11108;49.988;8.182;2023-02-01T07:17:29;1.73;;;0.70;;
21886;SDS011;11108;49.988;8.182;2023-02-01T07:19:55;2.43;;;0.80;;
21886;SDS011;11108;49.988;8.182;2023-02-01T07:22:20;0.83;;;0.77;;
21886;SDS011;11108;49.988;8.182;2023-02-01T07:24:45;0.90;;;0.70;;
21886;SDS011;11108;49.988;8.182;2023-02-01T07:27:10;2.73;;;0.73;;
21886;SDS011;11108;49.988;8.182;2023-02-01T07:29:35;1.00;;;0.90;;
21886;SDS011;11108;49.988;8.182;2023-02-01T07:32:00;0.93;;;0.80;;
21886;SDS011;11108;49.988;8.182;2023-02-01T07:34:27;1.13;;;0.73;;
21886;SDS011;11108;49.988;8.182;2023-02-01T07:36:52;0.80;;;0.80;;
21886;SDS011;11108;49.988;8.182;2023-02-01T07:39:17;3.10;;;0.90;;
21886;SDS011;11108;49.988;8.182;2023-02-01T07:41:42;1.67;;;0.80;;
21886;SDS011;11108;49.988;8.182;2023-02-01T07:44:08;1.83;;;0.90;;
21886;SDS011;11108;49.988;8.182;2023-02-01T07:46:33;0.70;;;0.70;;
21886;SDS011;11108;49.988;8.182;2023-02-01T07:48:58;0.47;;;0.47;;
21886;SDS011;11108;49.988;8.182;2023-02-01T07:51:23;5.87;;;2.10;;
21886;SDS011;11108;49.988;8.182;2023-02-01T07:53:49;15.53;;;3.83;;
21886;SDS011;11108;49.988;8.182;2023-02-01T07:56:15;14.70;;;3.77;;
21886;SDS011;11108;49.988;8.182;2023-02-01T07:58:40;19.93;;;4.90;;
21886;SDS011;11108;49.988;8.182;2023-02-01T08:01:05;16.13;;;5.10;;
21886;SDS011;11108;49.988;8.182;2023-02-01T08:03:46;15.43;;;4.90;;
21886;SDS011;11108;49.988;8.182;2023-02-01T08:06:11;15.93;;;5.40;;
21886;SDS011;11108;49.988;8.182;2023-02-01T08:08:37;16.17;;;4.60;;
21886;SDS011;11108;49.988;8.182;2023-02-01T08:11:03;13.07;;;4.63;;
21886;SDS011;11108;49.988;8.182;2023-02-01T08:13:29;17.53;;;4.97;;
21886;SDS011;11108;49.988;8.182;2023-02-01T08:15:58;11.77;;;4.77;;
21886;SDS011;11108;49.988;8.182;2023-02-01T08:18:24;13.17;;;4.93;;
21886;SDS011;11108;49.988;8.182;2023-02-01T08:20:49;10.97;;;4.17;;
21886;SDS011;11108;49.988;8.182;2023-02-01T08:23:14;11.40;;;3.80;;
21886;SDS011;11108;49.988;8.182;2023-02-01T08:25:39;13.87;;;3.80;;
21886;SDS011;11108;49.988;8.182;2023-02-01T08:28:06;7.30;;;2.93;;
21886;SDS011;11108;49.988;8.182;2023-02-01T08:30:31;8.63;;;3.17;;
21886;SDS011;11108;49.988;8.182;2023-02-01T08:32:57;7.67;;;2.90;;
21886;SDS011;11108;49.988;8.182;2023-02-01T08:35:22;8.57;;;3.13;;
21886;SDS011;11108;49.988;8.182;2023-02-01T08:37:49;8.80;;;3.47;;
21886;SDS011;11108;49.988;8.182;2023-02-01T08:40:14;8.13;;;2.63;;
21886;SDS011;11108;49.988;8.182;2023-02-01T08:42:39;7.13;;;2.50;;
21886;SDS011;11108;49.988;8.182;2023-02-01T08:45:27;10.20;;;3.77;;
21886;SDS011;11108;49.988;8.182;2023-02-01T08:47:54;6.67;;;3.03;;
21886;SDS011;11108;49.988;8.182;2023-02-01T08:50:19;7.50;;;2.67;;
21886;SDS011;11108;49.988;8.182;2023-02-01T08:52:45;8.27;;;2.30;;
21886;SDS011;11108;49.988;8.182;2023-02-01T08:55:10;5.27;;;2.23;;
21886;SDS011;11108;49.988;8.182;2023-02-01T08:57:36;7.30;;;2.20;;
21886;SDS011;11108;49.988;8.182;2023-02-01T09:00:02;6.30;;;2.73;;
21886;SDS011;11108;49.988;8.182;2023-02-01T09:02:28;5.50;;;1.77;;
21886;SDS011;11108;49.988;8.182;2023-02-01T09:04:53;6.33;;;2.10;;
21886;SDS011;11108;49.988;8.182;2023-02-01T09:07:18;3.50;;;2.30;;
21886;SDS011;11108;49.988;8.182;2023-02-01T09:09:44;4.53;;;1.80;;
21886;SDS011;11108;49.988;8.182;2023-02-01T09:12:09;5.33;;;2.30;;
21886;SDS011;11108;49.988;8.182;2023-02-01T09:14:34;4.40;;;1.73;;
21886;SDS011;11108;49.988;8.182;2023-02-01T09:16:59;4.40;;;2.53;;
21886;SDS011;11108;49.988;8.182;2023-02-01T09:19:25;3.73;;;1.77;;
21886;SDS011;11108;49.988;8.182;2023-02-01T09:21:50;2.63;;;1.77;;
21886;SDS011;11108;49.988;8.182;2023-02-01T09:24:15;2.83;;;1.73;;
21886;SDS011;11108;49.988;8.182;2023-02-01T09:26:40;3.80;;;1.80;;
21886;SDS011;11108;49.988;8.182;2023-02-01T09:29:05;3.57;;;1.80;;
21886;SDS011;11108;49.988;8.182;2023-02-01T09:31:37;2.23;;;1.63;;
21886;SDS011;11108;49.988;8.182;2023-02-01T09:34:03;4.63;;;2.00;;
21886;SDS011;11108;49.988;8.182;2023-02-01T09:36:28;5.53;;;2.77;;
21886;SDS011;11108;49.988;8.182;2023-02-01T09:38:54;3.97;;;2.00;;
21886;SDS011;11108;49.988;8.182;2023-02-01T09:43:53;6.07;;;2.37;;
21886;SDS011;11108;49.988;8.182;2023-02-01T09:48:46;4.40;;;1.90;;
21886;SDS011;11108;49.988;8.182;2023-02-01T09:54:16;3.80;;;2.20;;
21886;SDS011;11108;49.988;8.182;2023-02-01T09:56:44;3.80;;;1.80;;
21886;SDS011;11108;49.988;8.182;2023-02-01T09:59:19;4.37;;;1.53;;
21886;SDS011;11108;49.988;8.182;2023-02-01T10:01:47;4.60;;;1.90;;
21886;SDS011;11108;49.988;8.182;2023-02-01T10:04:13;3.20;;;1.50;;
21886;SDS011;11108;49.988;8.182;2023-02-01T10:09:22;3.57;;;2.00;;
21886;SDS011;11108;49.988;8.182;2023-02-01T10:14:32;3.50;;;2.03;;
21886;SDS011;11108;49.988;8.182;2023-02-01T10:19:47;2.90;;;1.30;;
21886;SDS011;11108;49.988;8.182;2023-02-01T10:22:24;3.33;;;1.63;;
21886;SDS011;11108;49.988;8.182;2023-02-01T10:24:53;3.30;;;2.07;;
21886;SDS011;11108;49.988;8.182;2023-02-01T10:27:25;4.27;;;1.60;;
21886;SDS011;11108;49.988;8.182;2023-02-01T10:29:55;2.80;;;1.70;;
21886;SDS011;11108;49.988;8.182;2023-02-01T10:32:24;2.13;;;1.33;;
21886;SDS011;11108;49.988;8.182;2023-02-01T10:35:00;1.93;;;1.60;;
21886;SDS011;11108;49.988;8.182;2023-02-01T10:37:30;2.07;;;1.40;;
21886;SDS011;11108;49.988;8.182;2023-02-01T10:39:57;2.60;;;1.57;;
21886;SDS011;11108;49.988;8.182;2023-02-01T10:42:24;3.33;;;1.50;;
21886;SDS011;11108;49.988;8.182;2023-02-01T10:44:50;3.43;;;1.50;;
21886;SDS011;11108;49.988;8.182;2023-02-01T10:47:15;2.13;;;1.30;;
21886;SDS011;11108;49.988;8.182;2023-02-01T10:49:43;3.10;;;1.47;;
21886;SDS011;11108;49.988;8.182;2023-02-01T10:52:17;2.63;;;1.40;;
21886;SDS011;11108;49.988;8.182;2023-02-01T10:54:44;2.67;;;1.50;;
21886;SDS011;11108;49.988;8.182;2023-02-01T10:57:10;4.27;;;1.83;;
21886;SDS011;11108;49.988;8.182;2023-02-01T10:59:35;2.07;;;1.27;;
21886;SDS011;11108;49.988;8.182;2023-02-01T11:02:46;4.77;;;1.80;;
21886;SDS011;11108;49.988;8.182;2023-02-01T11:04:46;1.87;;;1.47;;
21886;SDS011;11108;49.988;8.182;2023-02-01T11:09:40;3.20;;;1.70;;
21886;SDS011;11108;49.988;8.182;2023-02-01T11:12:07;1.77;;;1.40;;
21886;SDS011;11108;49.988;8.182;2023-02-01T11:14:44;2.40;;;1.33;;
21886;SDS011;11108;49.988;8.182;2023-02-01T11:17:17;3.30;;;1.43;;
21886;SDS011;11108;49.988;8.182;2023-02-01T11:19:44;2.13;;;1.50;;
21886;SDS011;11108;49.988;8.182;2023-02-01T11:22:10;2.63;;;1.33;;
21886;SDS011;11108;49.988;8.182;2023-02-01T11:24:36;2.00;;;1.70;;
21886;SDS011;11108;49.988;8.182;2023-02-01T11:27:04;2.80;;;1.40;;
21886;SDS011;11108;49.988;8.182;2023-02-01T11:29:33;1.40;;;1.30;;
21886;SDS011;11108;49.988;8.182;2023-02-01T11:32:00;2.20;;;1.10;;
21886;SDS011;11108;49.988;8.182;2023-02-01T11:34:28;2.07;;;1.67;;
21886;SDS011;11108;49.988;8.182;2023-02-01T11:36:56;2.07;;;1.40;;
21886;SDS011;11108;49.988;8.182;2023-02-01T11:41:59;3.30;;;1.50;;
21886;SDS011;11108;49.988;8.182;2023-02-01T11:44:36;1.73;;;1.07;;
21886;SDS011;11108;49.988;8.182;2023-02-01T11:49:46;2.30;;;1.67;;
21886;SDS011;11108;49.988;8.182;2023-02-01T11:52:18;3.73;;;1.67;;
21886;SDS011;11108;49.988;8.182;2023-02-01T11:59:52;2.53;;;1.50;;
21886;SDS011;11108;49.988;8.182;2023-02-01T12:12:33;3.03;;;1.80;;
21886;SDS011;11108;49.988;8.182;2023-02-01T12:20:08;3.40;;;1.83;;
21886;SDS011;11108;49.988;8.182;2023-02-01T12:33:20;5.20;;;1.47;;
21886;SDS011;11108;49.988;8.182;2023-02-01T12:38:35;2.27;;;1.30;;
21886;SDS011;11108;49.988;8.182;2023-02-01T12:41:16;2.50;;;1.63;;
21886;SDS011;11108;49.988;8.182;2023-02-01T12:43:48;4.40;;;1.43;;
21886;SDS011;11108;49.988;8.182;2023-02-01T12:46:57;3.23;;;1.40;;
21886;SDS011;11108;49.988;8.182;2023-02-01T12:49:11;2.07;;;1.20;;
21886;SDS011;11108;49.988;8.182;2023-02-01T12:51:39;2.77;;;1.40;;
21886;SDS011;11108;49.988;8.182;2023-02-01T12:56:49;1.53;;;1.40;;
21886;SDS011;11108;49.988;8.182;2023-02-01T13:04:22;1.87;;;1.43;;
21886;SDS011;11108;49.988;8.182;2023-02-01T13:07:33;2.63;;;1.50;;
21886;SDS011;11108;49.988;8.182;2023-02-01T13:09:42;2.63;;;1.40;;
21886;SDS011;11108;49.988;8.182;2023-02-01T13:12:53;3.13;;;1.43;;
21886;SDS011;11108;49.988;8.182;2023-02-01T13:14:58;2.37;;;1.60;;
21886;SDS011;11108;49.988;8.182;2023-02-01T13:17:26;1.40;;;1.30;;
21886;SDS011;11108;49.988;8.182;2023-02-01T13:19:56;1.57;;;1.30;;
21886;SDS011;11108;49.988;8.182;2023-02-01T13:22:27;4.10;;;1.70;;
21886;SDS011;11108;49.988;8.182;2023-02-01T13:24:57;2.83;;;1.50;;
21886;SDS011;11108;49.988;8.182;2023-02-01T13:27:23;2.00;;;1.03;;
21886;SDS011;11108;49.988;8.182;2023-02-01T13:29:54;2.70;;;1.10;;
21886;SDS011;11108;49.988;8.182;2023-02-01T13:32:24;4.33;;;1.70;;
21886;SDS011;11108;49.988;8.182;2023-02-01T13:42:52;9.53;;;4.37;;
21886;SDS011;11108;49.988;8.182;2023-02-01T13:45:22;11.63;;;5.80;;
21886;SDS011;11108;49.988;8.182;2023-02-01T13:47:49;14.30;;;7.67;;
21886;SDS011;11108;49.988;8.182;2023-02-01T13:52:55;20.97;;;11.20;;
21886;SDS011;11108;49.988;8.182;2023-02-01T13:58:01;31.87;;;15.57;;
21886;SDS011;11108;49.988;8.182;2023-02-01T14:03:02;30.37;;;15.03;;
21886;SDS011;11108;49.988;8.182;2023-02-01T14:23:38;28.40;;;14.93;;
21886;SDS011;11108;49.988;8.182;2023-02-01T14:26:05;25.83;;;15.73;;
21886;SDS011;11108;49.988;8.182;2023-02-01T14:28:32;28.70;;;15.67;;
21886;SDS011;11108;49.988;8.182;2023-02-01T14:30:57;29.90;;;15.13;;
21886;SDS011;11108;49.988;8.182;2023-02-01T14:33:24;29.47;;;14.03;;
21886;SDS011;11108;49.988;8.182;2023-02-01T14:36:05;28.57;;;14.73;;
21886;SDS011;11108;49.988;8.182;2023-02-01T14:38:32;29.00;;;14.43;;
21886;SDS011;11108;49.988;8.182;2023-02-01T14:43:48;27.67;;;14.33;;
21886;SDS011;11108;49.988;8.182;2023-02-01T14:46:14;26.33;;;15.03;;
21886;SDS011;11108;49.988;8.182;2023-02-01T14:48:41;21.83;;;12.33;;
21886;SDS011;11108;49.988;8.182;2023-02-01T14:51:07;24.33;;;13.40;;
21886;SDS011;11108;49.988;8.182;2023-02-01T14:53:33;23.30;;;13.33;;
21886;SDS011;11108;49.988;8.182;2023-02-01T14:56:00;22.57;;;12.37;;
21886;SDS011;11108;49.988;8.182;2023-02-01T15:01:16;21.20;;;12.63;;
21886;SDS011;11108;49.988;8.182;2023-02-01T15:06:18;18.67;;;11.13;;
21886;SDS011;11108;49.988;8.182;2023-02-01T15:08:45;19.33;;;10.53;;
21886;SDS011;11108;49.988;8.182;2023-02-01T15:11:14;18.00;;;10.70;;
21886;SDS011;11108;49.988;8.182;2023-02-01T15:13:39;19.03;;;10.10;;
21886;SDS011;11108;49.988;8.182;2023-02-01T15:16:08;15.40;;;9.93;;
21886;SDS011;11108;49.988;8.182;2023-02-01T15:18:34;20.17;;;10.20;;
21886;SDS011;11108;49.988;8.182;2023-02-01T15:21:00;15.23;;;8.93;;
21886;SDS011;11108;49.988;8.182;2023-02-01T15:23:26;17.23;;;9.10;;
21886;SDS011;11108;49.988;8.182;2023-02-01T15:25:52;17.23;;;9.03;;
21886;SDS011;11108;49.988;8.182;2023-02-01T15:28:18;13.23;;;8.53;;
21886;SDS011;11108;49.988;8.182;2023-02-01T15:30:59;16.83;;;8.20;;
21886;SDS011;11108;49.988;8.182;2023-02-01T15:33:25;16.60;;;8.43;;
21886;SDS011;11108;49.988;8.182;2023-02-01T15:35:55;13.47;;;8.17;;
21886;SDS011;11108;49.988;8.182;2023-02-01T15:40:53;15.97;;;8.23;;
21886;SDS011;11108;49.988;8.182;2023-02-01T15:43:18;18.40;;;8.87;;
21886;SDS011;11108;49.988;8.182;2023-02-01T15:45:43;15.60;;;7.73;;
21886;SDS011;11108;49.988;8.182;2023-02-01T15:48:11;14.03;;;7.30;;
21886;SDS011;11108;49.988;8.182;2023-02-01T15:50:39;13.77;;;9.03;;
21886;SDS011;11108;49.988;8.182;2023-02-01T15:53:05;11.23;;;6.60;;
21886;SDS011;11108;49.988;8.182;2023-02-01T15:55:36;12.07;;;7.80;;
21886;SDS011;11108;49.988;8.182;2023-02-01T15:58:05;12.93;;;7.07;;
21886;SDS011;11108;49.988;8.182;2023-02-01T16:00:34;11.90;;;7.13;;
21886;SDS011;11108;49.988;8.182;2023-02-01T16:03:07;13.53;;;7.03;;
21886;SDS011;11108;49.988;8.182;2023-02-01T16:05:53;14.97;;;6.93;;
21886;SDS011;11108;49.988;8.182;2023-02-01T16:08:22;13.67;;;7.07;;
21886;SDS011;11108;49.988;8.182;2023-02-01T16:10:49;15.53;;;6.17;;
21886;SDS011;11108;49.988;8.182;2023-02-01T16:13:15;16.73;;;6.00;;
21886;SDS011;11108;49.988;8.182;2023-02-01T16:15:40;12.83;;;6.10;;
21886;SDS011;11108;49.988;8.182;2023-02-01T16:18:06;14.77;;;6.20;;
21886;SDS011;11108;49.988;8.182;2023-02-01T16:20:33;12.10;;;5.33;;
21886;SDS011;11108;49.988;8.182;2023-02-01T16:23:00;14.23;;;6.73;;
21886;SDS011;11108;49.988;8.182;2023-02-01T16:25:25;13.13;;;5.53;;
21886;SDS011;11108;49.988;8.182;2023-02-01T16:27:50;8.50;;;5.67;;
21886;SDS011;11108;49.988;8.182;2023-02-01T16:30:15;10.83;;;6.27;;
21886;SDS011;11108;49.988;8.182;2023-02-01T16:32:43;10.50;;;5.17;;
21886;SDS011;11108;49.988;8.182;2023-02-01T16:35:17;10.60;;;5.60;;
21886;SDS011;11108;49.988;8.182;2023-02-01T16:37:44;11.17;;;5.37;;
21886;SDS011;11108;49.988;8.182;2023-02-01T16:40:16;10.13;;;5.30;;
21886;SDS011;11108;49.988;8.182;2023-02-01T16:42:41;9.60;;;5.30;;
21886;SDS011;11108;49.988;8.182;2023-02-01T16:45:07;8.80;;;4.77;;
21886;SDS011;11108;49.988;8.182;2023-02-01T16:47:33;10.53;;;4.77;;
21886;SDS011;11108;49.988;8.182;2023-02-01T16:50:01;11.50;;;5.10;;
21886;SDS011;11108;49.988;8.182;2023-02-01T16:52:26;12.40;;;5.10;;
21886;SDS011;11108;49.988;8.182;2023-02-01T16:54:54;11.27;;;5.23;;
21886;SDS011;11108;49.988;8.182;2023-02-01T16:57:20;11.07;;;4.50;;
21886;SDS011;11108;49.988;8.182;2023-02-01T16:59:48;11.43;;;5.23;;
21886;SDS011;11108;49.988;8.182;2023-02-01T17:02:14;10.10;;;4.40;;
21886;SDS011;11108;49.988;8.182;2023-02-01T17:04:40;10.53;;;5.30;;
21886;SDS011;11108;49.988;8.182;2023-02-01T17:07:05;17.47;;;5.77;;